Akvile — LYJM — position and weather

sailwx.info

Track history (hours):
 
Tides and Currents Weather Stations Pressure Air Temp Water Temp Dewpoint Dewpoint Depression Visibility Wind Speed Wind Dir Waves Ship Positions

Akvile

Last reported at 2015-Jun-20 20:06 UTC. Time now 2015-Jul-30 20:14 UTC.
Position N 40°58' E 028°55'.
Warning: this ship's position is 40 days out of date.

Length 103 m; draft 4.6 m.

Type: Ship. MMSI: 277073000.

Date/timePositionNaut miles runAvg speedWind from/ knotsBaromVisibWave heightAir tempDewpointWater temp
2015-Jun-20 20:06N 40°58' E 028°55'0 0.0
2015-Jun-20 16:12N 40°58' E 028°55'0 0.0
2015-Jun-20 15:30N 40°58' E 028°55'0 0.0
2015-Jun-20 14:30N 40°58' E 028°55'0 0.0
2015-Jun-20 13:30N 40°58' E 028°55'0 0.0
2015-Jun-20 12:18N 40°58' E 028°55'0 0.0
2015-Jun-20 11:24N 40°58' E 028°55'0 0.0
2015-Jun-20 08:18N 40°58' E 028°55'0 0.0
2015-Jun-20 03:18N 40°58' E 028°55'0 0.0
2015-Jun-19 09:30N 40°57' E 028°55'0 0.0
2015-Jun-18 15:30N 40°57' E 028°55'301 6.5
2015-Jun-16 17:24N 37°33' E 024°09'8 9.6
2015-Jun-16 16:33N 37°27' E 024°03'10 9.7
2015-Jun-16 15:33N 37°18' E 023°57'9 9.5
2015-Jun-16 14:33N 37°10' E 023°51'9 9.4
2015-Jun-16 13:33N 37°02' E 023°45'1010.4
2015-Jun-16 12:33N 36°53' E 023°38'1010.5
2015-Jun-16 11:33N 36°44' E 023°32'428 9.1
2015-Jun-14 12:17N 36°38' E 014°38'6 8.2
2015-Jun-14 11:33N 36°40' E 014°30'8 8.0
2015-Jun-14 10:33N 36°43' E 014°21'8 8.1
2015-Jun-14 09:33N 36°45' E 014°12'8 7.8
2015-Jun-14 08:33N 36°48' E 014°03'8 8.2
2015-Jun-14 07:33N 36°51' E 013°53'8 8.3
2015-Jun-14 06:33N 36°54' E 013°43'9 8.6
2015-Jun-14 05:33N 36°57' E 013°33'9 8.5
2015-Jun-14 04:33N 36°60' E 013°23'63 7.7
2015-Jun-13 20:23N 37°27' E 012°12'6 7.5
2015-Jun-13 19:33N 37°29' E 012°04'7 6.8
2015-Jun-13 18:33N 37°34' E 011°58'6 6.0
2015-Jun-13 17:33N 37°37' E 011°52'6 6.0
2015-Jun-13 16:33N 37°39' E 011°45'5 4.8
2015-Jun-13 15:33N 37°40' E 011°39'144 7.5
2015-Jun-12 20:14N 38°31' E 008°47'6 8.4
2015-Jun-12 19:30N 38°33' E 008°40'189 6.7
2015-Jun-11 15:23N 39°39' E 004°51'4 0.3
2015-Jun-10 23:11N 39°40' E 004°56'0 0.3
2015-Jun-10 21:15N 39°39' E 004°56'5 6.7
2015-Jun-10 20:29N 39°41' E 004°49'  
Track history (hours):
 
Tides and Currents Weather Stations Pressure Air Temp Water Temp Dewpoint Dewpoint Depression Visibility Wind Speed Wind Dir Waves Ship Positions

Akvile

Last reported at 2015-Jun-20 20:06 UTC. Time now 2015-Jul-30 20:14 UTC.
Position N 40°58' E 028°55'.
Warning: this ship's position is 40 days out of date.

Length 103 m; draft 4.6 m.

Type: Ship. MMSI: 277073000.

Date/timePositionNaut miles runAvg speedWind from/ knotsBaromVisibWave heightAir tempDewpointWater temp
2015-Jun-20 20:06N 40°58' E 028°55'0 0.0
2015-Jun-20 16:12N 40°58' E 028°55'0 0.0
2015-Jun-20 15:30N 40°58' E 028°55'0 0.0
2015-Jun-20 14:30N 40°58' E 028°55'0 0.0
2015-Jun-20 13:30N 40°58' E 028°55'0 0.0
2015-Jun-20 12:18N 40°58' E 028°55'0 0.0
2015-Jun-20 11:24N 40°58' E 028°55'0 0.0
2015-Jun-20 08:18N 40°58' E 028°55'0 0.0
2015-Jun-20 03:18N 40°58' E 028°55'0 0.0
2015-Jun-19 09:30N 40°57' E 028°55'0 0.0
2015-Jun-18 15:30N 40°57' E 028°55'301 6.5
2015-Jun-16 17:24N 37°33' E 024°09'8 9.6
2015-Jun-16 16:33N 37°27' E 024°03'10 9.7
2015-Jun-16 15:33N 37°18' E 023°57'9 9.5
2015-Jun-16 14:33N 37°10' E 023°51'9 9.4
2015-Jun-16 13:33N 37°02' E 023°45'1010.4
2015-Jun-16 12:33N 36°53' E 023°38'1010.5
2015-Jun-16 11:33N 36°44' E 023°32'428 9.1
2015-Jun-14 12:17N 36°38' E 014°38'6 8.2
2015-Jun-14 11:33N 36°40' E 014°30'8 8.0
2015-Jun-14 10:33N 36°43' E 014°21'8 8.1
2015-Jun-14 09:33N 36°45' E 014°12'8 7.8
2015-Jun-14 08:33N 36°48' E 014°03'8 8.2
2015-Jun-14 07:33N 36°51' E 013°53'8 8.3
2015-Jun-14 06:33N 36°54' E 013°43'9 8.6
2015-Jun-14 05:33N 36°57' E 013°33'9 8.5
2015-Jun-14 04:33N 36°60' E 013°23'63 7.7
2015-Jun-13 20:23N 37°27' E 012°12'6 7.5
2015-Jun-13 19:33N 37°29' E 012°04'7 6.8
2015-Jun-13 18:33N 37°34' E 011°58'6 6.0
2015-Jun-13 17:33N 37°37' E 011°52'6 6.0
2015-Jun-13 16:33N 37°39' E 011°45'5 4.8
2015-Jun-13 15:33N 37°40' E 011°39'144 7.5
2015-Jun-12 20:14N 38°31' E 008°47'6 8.4
2015-Jun-12 19:30N 38°33' E 008°40'189 6.7
2015-Jun-11 15:23N 39°39' E 004°51'4 0.3
2015-Jun-10 23:11N 39°40' E 004°56'0 0.3
2015-Jun-10 21:15N 39°39' E 004°56'5 6.7
2015-Jun-10 20:29N 39°41' E 004°49'  

Dump ship's entire track history